sensor_id;sensor_type;location;lat;lon;timestamp;pressure;altitude;pressure_sealevel;temperature;humidity
60437;BME280;46289;51.992;4.498;2023-04-28T00:00:43;101568.94;;;9.13;63.22
60437;BME280;46289;51.992;4.498;2023-04-28T00:02:53;101560.97;;;9.17;62.27
60437;BME280;46289;51.992;4.498;2023-04-28T00:05:02;101558.41;;;9.14;62.22
60437;BME280;46289;51.992;4.498;2023-04-28T00:07:07;101559.38;;;9.10;62.95
60437;BME280;46289;51.992;4.498;2023-04-28T00:09:12;101555.06;;;9.08;63.66
60437;BME280;46289;51.992;4.498;2023-04-28T00:11:20;101548.81;;;9.13;62.31
60437;BME280;46289;51.992;4.498;2023-04-28T00:13:25;101550.63;;;9.11;62.67
60437;BME280;46289;51.992;4.498;2023-04-28T00:15:30;101540.25;;;9.05;61.82
60437;BME280;46289;51.992;4.498;2023-04-28T00:17:35;101554.34;;;9.01;62.39
60437;BME280;46289;51.992;4.498;2023-04-28T00:19:40;101548.34;;;8.96;62.29
60437;BME280;46289;51.992;4.498;2023-04-28T00:21:50;101551.84;;;8.96;62.58
60437;BME280;46289;51.992;4.498;2023-04-28T00:23:55;101538.69;;;8.98;62.31
60437;BME280;46289;51.992;4.498;2023-04-28T00:26:00;101535.31;;;8.93;62.44
60437;BME280;46289;51.992;4.498;2023-04-28T00:28:05;101531.78;;;8.94;62.99
60437;BME280;46289;51.992;4.498;2023-04-28T00:30:12;101515.06;;;8.99;61.93
60437;BME280;46289;51.992;4.498;2023-04-28T00:32:16;101508.97;;;8.99;61.25
60437;BME280;46289;51.992;4.498;2023-04-28T00:34:24;101520.34;;;8.98;61.46
60437;BME280;46289;51.992;4.498;2023-04-28T00:36:30;101511.56;;;8.99;61.91
60437;BME280;46289;51.992;4.498;2023-04-28T00:38:41;101516.00;;;8.97;61.74
60437;BME280;46289;51.992;4.498;2023-04-28T00:40:45;101506.34;;;8.99;61.47
60437;BME280;46289;51.992;4.498;2023-04-28T00:42:53;101506.44;;;8.94;61.90
60437;BME280;46289;51.992;4.498;2023-04-28T00:44:59;101499.47;;;8.93;62.14
60437;BME280;46289;51.992;4.498;2023-04-28T00:47:07;101493.31;;;8.96;61.76
60437;BME280;46289;51.992;4.498;2023-04-28T00:49:12;101490.59;;;9.00;61.49
60437;BME280;46289;51.992;4.498;2023-04-28T00:51:22;101487.13;;;8.98;61.54
60437;BME280;46289;51.992;4.498;2023-04-28T00:53:29;101485.44;;;8.96;61.19
60437;BME280;46289;51.992;4.498;2023-04-28T00:55:37;101488.06;;;8.96;61.21
60437;BME280;46289;51.992;4.498;2023-04-28T00:57:46;101481.06;;;8.95;61.23
60437;BME280;46289;51.992;4.498;2023-04-28T01:00:16;101469.75;;;8.94;60.98
60437;BME280;46289;51.992;4.498;2023-04-28T01:02:21;101468.88;;;8.94;61.78
60437;BME280;46289;51.992;4.498;2023-04-28T01:04:29;101468.78;;;8.98;61.81
60437;BME280;46289;51.992;4.498;2023-04-28T01:06:35;101457.28;;;9.04;61.28
60437;BME280;46289;51.992;4.498;2023-04-28T01:08:42;101458.31;;;8.97;61.54
60437;BME280;46289;51.992;4.498;2023-04-28T01:10:53;101460.91;;;8.98;60.86
60437;BME280;46289;51.992;4.498;2023-04-28T01:12:59;101455.78;;;8.94;61.35
60437;BME280;46289;51.992;4.498;2023-04-28T01:15:05;101448.75;;;8.96;61.66
60437;BME280;46289;51.992;4.498;2023-04-28T01:17:11;101445.31;;;8.92;61.39
60437;BME280;46289;51.992;4.498;2023-04-28T01:19:20;101442.47;;;9.03;61.21
60437;BME280;46289;51.992;4.498;2023-04-28T01:21:29;101446.13;;;8.96;61.02
60437;BME280;46289;51.992;4.498;2023-04-28T01:23:34;101444.38;;;8.95;61.22
60437;BME280;46289;51.992;4.498;2023-04-28T01:25:42;101445.31;;;8.92;61.08
60437;BME280;46289;51.992;4.498;2023-04-28T01:27:49;101440.81;;;8.97;60.75
60437;BME280;46289;51.992;4.498;2023-04-28T01:29:53;101442.59;;;8.97;61.49
60437;BME280;46289;51.992;4.498;2023-04-28T01:32:00;101441.66;;;8.99;60.76
60437;BME280;46289;51.992;4.498;2023-04-28T01:34:05;101430.41;;;8.96;60.72
60437;BME280;46289;51.992;4.498;2023-04-28T01:36:10;101418.13;;;8.98;61.00
60437;BME280;46289;51.992;4.498;2023-04-28T01:38:15;101424.28;;;8.95;60.73
60437;BME280;46289;51.992;4.498;2023-04-28T01:40:20;101407.63;;;8.98;60.91
60437;BME280;46289;51.992;4.498;2023-04-28T01:42:28;101394.56;;;8.96;60.93
60437;BME280;46289;51.992;4.498;2023-04-28T01:44:33;101399.97;;;8.90;60.53
60437;BME280;46289;51.992;4.498;2023-04-28T01:46:38;101408.78;;;8.86;60.69
60437;BME280;46289;51.992;4.498;2023-04-28T01:48:44;101416.53;;;8.91;61.06
60437;BME280;46289;51.992;4.498;2023-04-28T01:50:49;101420.94;;;8.89;61.00
60437;BME280;46289;51.992;4.498;2023-04-28T01:52:54;101411.41;;;8.86;60.90
60437;BME280;46289;51.992;4.498;2023-04-28T01:55:00;101413.91;;;8.91;60.50
60437;BME280;46289;51.992;4.498;2023-04-28T01:57:06;101401.56;;;8.96;60.28
60437;BME280;46289;51.992;4.498;2023-04-28T01:59:13;101400.00;;;8.87;60.39
60437;BME280;46289;51.992;4.498;2023-04-28T02:01:25;101400.09;;;8.84;61.14
60437;BME280;46289;51.992;4.498;2023-04-28T02:03:30;101399.22;;;8.84;60.93
60437;BME280;46289;51.992;4.498;2023-04-28T02:05:39;101398.28;;;8.86;60.73
60437;BME280;46289;51.992;4.498;2023-04-28T02:07:44;101393.03;;;8.88;60.83
60437;BME280;46289;51.992;4.498;2023-04-28T02:09:52;101389.34;;;8.95;60.05
60437;BME280;46289;51.992;4.498;2023-04-28T02:11:57;101386.03;;;8.88;60.38
60437;BME280;46289;51.992;4.498;2023-04-28T02:14:03;101375.47;;;8.91;60.67
60437;BME280;46289;51.992;4.498;2023-04-28T02:16:10;101371.16;;;8.89;61.04
60437;BME280;46289;51.992;4.498;2023-04-28T02:18:16;101374.72;;;8.86;60.79
60437;BME280;46289;51.992;4.498;2023-04-28T02:20:21;101374.81;;;8.82;61.48
60437;BME280;46289;51.992;4.498;2023-04-28T02:22:26;101371.34;;;8.81;61.04
60437;BME280;46289;51.992;4.498;2023-04-28T02:24:34;101372.16;;;8.83;61.12
60437;BME280;46289;51.992;4.498;2023-04-28T02:26:39;101362.47;;;8.87;61.20
60437;BME280;46289;51.992;4.498;2023-04-28T02:28:46;101362.31;;;8.93;60.58
60437;BME280;46289;51.992;4.498;2023-04-28T02:30:52;101366.75;;;8.89;60.63
60437;BME280;46289;51.992;4.498;2023-04-28T02:33:00;101364.19;;;8.88;60.95
60437;BME280;46289;51.992;4.498;2023-04-28T02:35:07;101353.81;;;8.83;61.06
60437;BME280;46289;51.992;4.498;2023-04-28T02:37:12;101357.38;;;8.81;61.37
60437;BME280;46289;51.992;4.498;2023-04-28T02:39:17;101350.44;;;8.79;61.19
60437;BME280;46289;51.992;4.498;2023-04-28T02:41:27;101347.72;;;8.83;61.54
60437;BME280;46289;51.992;4.498;2023-04-28T02:43:33;101345.13;;;8.81;61.20
60437;BME280;46289;51.992;4.498;2023-04-28T02:45:38;101344.31;;;8.79;61.57
60437;BME280;46289;51.992;4.498;2023-04-28T02:47:43;101351.28;;;8.80;61.70
60437;BME280;46289;51.992;4.498;2023-04-28T02:49:51;101354.75;;;8.81;61.52
60437;BME280;46289;51.992;4.498;2023-04-28T02:51:56;101350.47;;;8.76;61.80
60437;BME280;46289;51.992;4.498;2023-04-28T02:54:02;101357.47;;;8.77;61.77
60437;BME280;46289;51.992;4.498;2023-04-28T02:56:07;101346.22;;;8.72;62.07
60437;BME280;46289;51.992;4.498;2023-04-28T02:58:12;101341.81;;;8.74;61.85
60437;BME280;46289;51.992;4.498;2023-04-28T03:00:21;101346.91;;;8.81;62.07
60437;BME280;46289;51.992;4.498;2023-04-28T03:02:29;101350.44;;;8.79;62.07
60437;BME280;46289;51.992;4.498;2023-04-28T03:04:36;101340.81;;;8.80;62.38
60437;BME280;46289;51.992;4.498;2023-04-28T03:06:44;101345.31;;;8.73;62.18
60437;BME280;46289;51.992;4.498;2023-04-28T03:08:51;101344.25;;;8.82;62.12
60437;BME280;46289;51.992;4.498;2023-04-28T03:10:56;101344.38;;;8.76;62.30
60437;BME280;46289;51.992;4.498;2023-04-28T03:13:02;101338.38;;;8.72;62.46
60437;BME280;46289;51.992;4.498;2023-04-28T03:15:08;101333.88;;;8.77;62.42
60437;BME280;46289;51.992;4.498;2023-04-28T03:17:14;101332.22;;;8.73;62.28
60437;BME280;46289;51.992;4.498;2023-04-28T03:19:21;101329.66;;;8.72;62.77
60437;BME280;46289;51.992;4.498;2023-04-28T03:21:27;101326.88;;;8.78;62.89
60437;BME280;46289;51.992;4.498;2023-04-28T03:23:35;101334.75;;;8.76;62.46
60437;BME280;46289;51.992;4.498;2023-04-28T03:25:43;101321.63;;;8.78;62.38
60437;BME280;46289;51.992;4.498;2023-04-28T03:27:48;101308.50;;;8.79;62.88
60437;BME280;46289;51.992;4.498;2023-04-28T03:29:54;101304.38;;;8.69;63.00
60437;BME280;46289;51.992;4.498;2023-04-28T03:31:59;101307.75;;;8.74;62.98
60437;BME280;46289;51.992;4.498;2023-04-28T03:34:04;101312.09;;;8.75;63.00
60437;BME280;46289;51.992;4.498;2023-04-28T03:36:09;101307.00;;;8.69;63.21
60437;BME280;46289;51.992;4.498;2023-04-28T03:38:14;101303.66;;;8.64;63.51
60437;BME280;46289;51.992;4.498;2023-04-28T03:40:25;101290.34;;;8.72;62.70
60437;BME280;46289;51.992;4.498;2023-04-28T03:42:31;101299.25;;;8.65;63.66
60437;BME280;46289;51.992;4.498;2023-04-28T03:44:38;101293.09;;;8.67;63.50
60437;BME280;46289;51.992;4.498;2023-04-28T03:46:43;101284.41;;;8.65;63.57
60437;BME280;46289;51.992;4.498;2023-04-28T03:48:50;101281.78;;;8.65;63.81
60437;BME280;46289;51.992;4.498;2023-04-28T03:50:55;101276.63;;;8.62;64.18
60437;BME280;46289;51.992;4.498;2023-04-28T03:53:01;101277.31;;;8.69;63.45
60437;BME280;46289;51.992;4.498;2023-04-28T03:55:06;101282.63;;;8.66;63.74
60437;BME280;46289;51.992;4.498;2023-04-28T03:57:14;101268.66;;;8.67;64.14
60437;BME280;46289;51.992;4.498;2023-04-28T03:59:22;101253.00;;;8.64;64.11
60437;BME280;46289;51.992;4.498;2023-04-28T04:01:27;101250.44;;;8.61;64.39
60437;BME280;46289;51.992;4.498;2023-04-28T04:03:32;101255.75;;;8.59;64.44
60437;BME280;46289;51.992;4.498;2023-04-28T04:05:39;101263.44;;;8.65;64.39
60437;BME280;46289;51.992;4.498;2023-04-28T04:07:45;101261.72;;;8.64;64.63
60437;BME280;46289;51.992;4.498;2023-04-28T04:09:50;101247.97;;;8.56;64.60
60437;BME280;46289;51.992;4.498;2023-04-28T04:11:55;101238.28;;;8.58;65.20
60437;BME280;46289;51.992;4.498;2023-04-28T04:14:03;101240.91;;;8.58;64.97
60437;BME280;46289;51.992;4.498;2023-04-28T04:16:08;101233.94;;;8.59;64.87
60437;BME280;46289;51.992;4.498;2023-04-28T04:18:17;101233.88;;;8.60;65.27
60437;BME280;46289;51.992;4.498;2023-04-28T04:20:25;101227.75;;;8.61;65.29
60437;BME280;46289;51.992;4.498;2023-04-28T04:22:31;101227.81;;;8.58;65.27
60437;BME280;46289;51.992;4.498;2023-04-28T04:24:37;101237.22;;;8.65;64.99
60437;BME280;46289;51.992;4.498;2023-04-28T04:26:42;101240.84;;;8.61;65.37
60437;BME280;46289;51.992;4.498;2023-04-28T04:28:48;101246.22;;;8.55;65.26
60437;BME280;46289;51.992;4.498;2023-04-28T04:30:55;101250.63;;;8.53;65.46
60437;BME280;46289;51.992;4.498;2023-04-28T04:33:01;101257.44;;;8.60;64.99
60437;BME280;46289;51.992;4.498;2023-04-28T04:35:08;101260.88;;;8.64;65.32
60437;BME280;46289;51.992;4.498;2023-04-28T04:37:15;101263.53;;;8.62;65.29
60437;BME280;46289;51.992;4.498;2023-04-28T04:39:23;101257.44;;;8.60;65.77
60437;BME280;46289;51.992;4.498;2023-04-28T04:41:28;101256.41;;;8.67;65.61
60437;BME280;46289;51.992;4.498;2023-04-28T04:43:33;101250.16;;;8.71;65.50
60437;BME280;46289;51.992;4.498;2023-04-28T04:45:38;101253.69;;;8.70;65.86
60437;BME280;46289;51.992;4.498;2023-04-28T04:47:46;101249.44;;;8.66;65.97
60437;BME280;46289;51.992;4.498;2023-04-28T04:49:51;101250.31;;;8.67;67.02
60437;BME280;46289;51.992;4.498;2023-04-28T04:51:56;101249.44;;;8.66;67.06
60437;BME280;46289;51.992;4.498;2023-04-28T04:54:04;101247.53;;;8.71;67.68
60437;BME280;46289;51.992;4.498;2023-04-28T04:56:09;101243.41;;;8.63;70.39
60437;BME280;46289;51.992;4.498;2023-04-28T04:58:14;101248.72;;;8.61;71.54
60437;BME280;46289;51.992;4.498;2023-04-28T05:00:20;101251.53;;;8.53;71.24
60437;BME280;46289;51.992;4.498;2023-04-28T05:02:25;101249.66;;;8.59;72.38
60437;BME280;46289;51.992;4.498;2023-04-28T05:04:34;101256.78;;;8.52;72.50
60437;BME280;46289;51.992;4.498;2023-04-28T05:06:39;101250.84;;;8.45;73.75
60437;BME280;46289;51.992;4.498;2023-04-28T05:08:44;101249.97;;;8.45;74.46
60437;BME280;46289;51.992;4.498;2023-04-28T05:10:51;101259.69;;;8.40;74.50
60437;BME280;46289;51.992;4.498;2023-04-28T05:12:56;101263.19;;;8.39;76.10
60437;BME280;46289;51.992;4.498;2023-04-28T05:15:02;101270.22;;;8.36;75.07
60437;BME280;46289;51.992;4.498;2023-04-28T05:17:08;101258.19;;;8.29;75.76
60437;BME280;46289;51.992;4.498;2023-04-28T05:19:14;101261.44;;;8.41;75.59
60437;BME280;46289;51.992;4.498;2023-04-28T05:21:21;101261.69;;;8.30;76.85
60437;BME280;46289;51.992;4.498;2023-04-28T05:23:26;101256.53;;;8.27;76.72
60437;BME280;46289;51.992;4.498;2023-04-28T05:25:33;101247.59;;;8.34;77.53
60437;BME280;46289;51.992;4.498;2023-04-28T05:27:38;101231.13;;;8.29;77.67
60437;BME280;46289;51.992;4.498;2023-04-28T05:29:43;101228.97;;;8.10;79.50
60437;BME280;46289;51.992;4.498;2023-04-28T05:31:48;101222.72;;;8.16;79.62
60437;BME280;46289;51.992;4.498;2023-04-28T05:33:54;101225.66;;;8.02;79.99
60437;BME280;46289;51.992;4.498;2023-04-28T05:35:59;101217.19;;;7.93;80.65
60437;BME280;46289;51.992;4.498;2023-04-28T05:38:07;101208.47;;;7.92;81.04
60437;BME280;46289;51.992;4.498;2023-04-28T05:40:13;101211.16;;;7.89;81.52
60437;BME280;46289;51.992;4.498;2023-04-28T05:42:20;101209.28;;;7.96;81.76
60437;BME280;46289;51.992;4.498;2023-04-28T05:44:27;101211.06;;;7.94;82.21
60437;BME280;46289;51.992;4.498;2023-04-28T05:46:33;101209.34;;;7.93;82.02
60437;BME280;46289;51.992;4.498;2023-04-28T05:48:41;101211.81;;;7.99;83.12
60437;BME280;46289;51.992;4.498;2023-04-28T05:50:46;101217.13;;;7.96;83.17
60437;BME280;46289;51.992;4.498;2023-04-28T05:52:52;101211.81;;;7.99;83.19
60437;BME280;46289;51.992;4.498;2023-04-28T05:55:00;101211.72;;;8.03;83.09
60437;BME280;46289;51.992;4.498;2023-04-28T05:57:05;101213.50;;;8.01;83.76
60437;BME280;46289;51.992;4.498;2023-04-28T05:59:10;101217.78;;;8.04;84.15
60437;BME280;46289;51.992;4.498;2023-04-28T06:01:15;101214.19;;;8.08;84.14
60437;BME280;46289;51.992;4.498;2023-04-28T06:03:20;101208.84;;;8.14;83.81
60437;BME280;46289;51.992;4.498;2023-04-28T06:05:26;101202.66;;;8.17;83.32
60437;BME280;46289;51.992;4.498;2023-04-28T06:07:32;101200.53;;;8.31;83.21
60437;BME280;46289;51.992;4.498;2023-04-28T06:09:38;101209.31;;;8.30;83.40
60437;BME280;46289;51.992;4.498;2023-04-28T06:11:45;101212.81;;;8.29;83.51
60437;BME280;46289;51.992;4.498;2023-04-28T06:13:51;101213.69;;;8.29;83.57
60437;BME280;46289;51.992;4.498;2023-04-28T06:15:56;101220.63;;;8.30;83.07
60437;BME280;46289;51.992;4.498;2023-04-28T06:18:02;101220.75;;;8.26;84.13
60437;BME280;46289;51.992;4.498;2023-04-28T06:20:09;101217.09;;;8.31;83.71
60437;BME280;46289;51.992;4.498;2023-04-28T06:22:15;101217.09;;;8.33;83.73
60437;BME280;46289;51.992;4.498;2023-04-28T06:24:20;101222.06;;;8.44;83.20
60437;BME280;46289;51.992;4.498;2023-04-28T06:26:25;101217.78;;;8.41;83.29
60437;BME280;46289;51.992;4.498;2023-04-28T06:28:33;101215.72;;;8.54;83.01
60437;BME280;46289;51.992;4.498;2023-04-28T06:30:40;101205.13;;;8.59;83.02
60437;BME280;46289;51.992;4.498;2023-04-28T06:32:46;101200.63;;;8.64;83.37
60437;BME280;46289;51.992;4.498;2023-04-28T06:34:51;101193.44;;;8.70;83.33
60437;BME280;46289;51.992;4.498;2023-04-28T06:36:59;101195.22;;;8.68;83.79
60437;BME280;46289;51.992;4.498;2023-04-28T06:39:04;101193.53;;;8.67;84.38
60437;BME280;46289;51.992;4.498;2023-04-28T06:41:09;101188.81;;;8.80;84.81
60437;BME280;46289;51.992;4.498;2023-04-28T06:43:14;101190.19;;;8.93;85.02
60437;BME280;46289;51.992;4.498;2023-04-28T06:45:24;101190.94;;;8.97;85.71
60437;BME280;46289;51.992;4.498;2023-04-28T06:47:42;101184.13;;;8.91;86.43
60437;BME280;46289;51.992;4.498;2023-04-28T06:50:26;101192.91;;;8.90;87.79
60437;BME280;46289;51.992;4.498;2023-04-28T06:56:13;101195.34;;;8.96;88.12
60437;BME280;46289;51.992;4.498;2023-04-28T06:58:20;101185.47;;;9.06;87.70
60437;BME280;46289;51.992;4.498;2023-04-28T07:00:28;101191.88;;;8.96;88.83
60437;BME280;46289;51.992;4.498;2023-04-28T07:02:33;101191.66;;;9.04;88.60
60437;BME280;46289;51.992;4.498;2023-04-28T07:04:39;101185.47;;;9.06;89.03
60437;BME280;46289;51.992;4.498;2023-04-28T07:06:43;101189.88;;;9.04;89.58
60437;BME280;46289;51.992;4.498;2023-04-28T07:08:49;101194.81;;;9.15;89.06
60437;BME280;46289;51.992;4.498;2023-04-28T07:10:54;101198.94;;;9.23;89.00
60437;BME280;46289;51.992;4.498;2023-04-28T07:12:59;101199.31;;;9.11;89.50
60437;BME280;46289;51.992;4.498;2023-04-28T07:15:05;101196.72;;;9.10;90.56
60437;BME280;46289;51.992;4.498;2023-04-28T07:17:13;101202.47;;;9.22;90.21
60437;BME280;46289;51.992;4.498;2023-04-28T07:19:19;101196.06;;;9.33;89.62
60437;BME280;46289;51.992;4.498;2023-04-28T07:21:24;101197.31;;;9.19;90.69
60437;BME280;46289;51.992;4.498;2023-04-28T07:23:29;101204.91;;;9.29;90.79
60437;BME280;46289;51.992;4.498;2023-04-28T07:25:34;101195.75;;;9.42;90.44
60437;BME280;46289;51.992;4.498;2023-04-28T07:27:41;101192.88;;;9.51;90.71
60437;BME280;46289;51.992;4.498;2023-04-28T07:29:46;101192.53;;;9.62;89.76
60437;BME280;46289;51.992;4.498;2023-04-28T07:31:51;101194.31;;;9.61;90.42
60437;BME280;46289;51.992;4.498;2023-04-28T07:33:58;101190.94;;;9.84;90.45
60437;BME280;46289;51.992;4.498;2023-04-28T07:36:05;101187.44;;;10.12;90.08
60437;BME280;46289;51.992;4.498;2023-04-28T07:38:10;101191.34;;;10.27;90.39
60437;BME280;46289;51.992;4.498;2023-04-28T07:40:16;101188.31;;;10.39;90.20
60437;BME280;46289;51.992;4.498;2023-04-28T07:42:21;101186.59;;;10.38;90.84
60437;BME280;46289;51.992;4.498;2023-04-28T07:44:26;101191.66;;;10.16;90.58
60437;BME280;46289;51.992;4.498;2023-04-28T07:46:32;101192.13;;;10.30;91.34
60437;BME280;46289;51.992;4.498;2023-04-28T07:48:37;101190.91;;;10.41;90.59
60437;BME280;46289;51.992;4.498;2023-04-28T07:50:45;101191.25;;;10.55;90.51
60437;BME280;46289;51.992;4.498;2023-04-28T07:52:50;101188.13;;;10.45;90.81
60437;BME280;46289;51.992;4.498;2023-04-28T07:54:55;101183.66;;;10.47;90.78
60437;BME280;46289;51.992;4.498;2023-04-28T07:57:00;101187.91;;;10.51;90.86
60437;BME280;46289;51.992;4.498;2023-04-28T07:59:06;101184.47;;;10.49;90.85
60437;BME280;46289;51.992;4.498;2023-04-28T08:01:11;101183.34;;;10.57;90.92
60437;BME280;46289;51.992;4.498;2023-04-28T08:03:16;101184.41;;;10.51;91.31
60437;BME280;46289;51.992;4.498;2023-04-28T08:05:22;101186.13;;;10.52;91.29
60437;BME280;46289;51.992;4.498;2023-04-28T08:07:30;101182.56;;;10.53;92.01
60437;BME280;46289;51.992;4.498;2023-04-28T08:09:35;101190.22;;;10.34;92.40
60437;BME280;46289;51.992;4.498;2023-04-28T08:11:42;101188.28;;;10.41;92.14
60437;BME280;46289;51.992;4.498;2023-04-28T08:13:50;101185.28;;;10.51;91.92
60437;BME280;46289;51.992;4.498;2023-04-28T08:15:55;101180.81;;;10.53;92.62
60437;BME280;46289;51.992;4.498;2023-04-28T08:18:02;101182.41;;;10.58;92.72
60437;BME280;46289;51.992;4.498;2023-04-28T08:20:08;101187.25;;;10.70;92.54
60437;BME280;46289;51.992;4.498;2023-04-28T08:22:16;101187.38;;;10.67;93.13
60437;BME280;46289;51.992;4.498;2023-04-28T08:24:23;101192.34;;;10.74;93.03
60437;BME280;46289;51.992;4.498;2023-04-28T08:26:33;101190.41;;;10.80;93.75
60437;BME280;46289;51.992;4.498;2023-04-28T08:28:38;101192.75;;;10.87;93.59
60437;BME280;46289;51.992;4.498;2023-04-28T08:30:43;101180.97;;;10.97;93.04
60437;BME280;46289;51.992;4.498;2023-04-28T08:32:48;101187.91;;;11.24;92.40
60437;BME280;46289;51.992;4.498;2023-04-28T08:34:53;101180.78;;;11.04;93.44
60437;BME280;46289;51.992;4.498;2023-04-28T08:36:58;101182.84;;;10.95;94.05
60437;BME280;46289;51.992;4.498;2023-04-28T08:39:04;101175.81;;;10.96;94.16
60437;BME280;46289;51.992;4.498;2023-04-28T08:41:14;101170.75;;;11.13;93.82
60437;BME280;46289;51.992;4.498;2023-04-28T08:43:20;101176.78;;;11.17;93.70
60437;BME280;46289;51.992;4.498;2023-04-28T08:45:26;101176.50;;;11.25;94.92
60437;BME280;46289;51.992;4.498;2023-04-28T08:47:37;101174.69;;;11.49;93.54
60437;BME280;46289;51.992;4.498;2023-04-28T08:49:47;101175.38;;;11.54;93.55
60437;BME280;46289;51.992;4.498;2023-04-28T08:51:55;101172.44;;;11.61;93.27
60437;BME280;46289;51.992;4.498;2023-04-28T08:54:02;101174.94;;;11.64;92.83
60437;BME280;46289;51.992;4.498;2023-04-28T08:56:13;101175.38;;;11.76;92.89
60437;BME280;46289;51.992;4.498;2023-04-28T08:58:20;101169.78;;;11.83;92.60
60437;BME280;46289;51.992;4.498;2023-04-28T09:00:26;101173.59;;;11.76;92.20
60437;BME280;46289;51.992;4.498;2023-04-28T09:02:32;101167.09;;;12.07;91.99
60437;BME280;46289;51.992;4.498;2023-04-28T09:04:39;101159.16;;;12.08;91.51
60437;BME280;46289;51.992;4.498;2023-04-28T09:06:44;101167.91;;;12.09;91.51
60437;BME280;46289;51.992;4.498;2023-04-28T09:08:52;101165.22;;;12.31;91.35
60437;BME280;46289;51.992;4.498;2023-04-28T09:11:07;101160.59;;;12.36;90.96
60437;BME280;46289;51.992;4.498;2023-04-28T09:13:26;101162.66;;;12.50;91.30
60437;BME280;46289;51.992;4.498;2023-04-28T09:15:33;101153.09;;;12.47;90.56
60437;BME280;46289;51.992;4.498;2023-04-28T09:17:48;101158.81;;;12.57;91.02
60437;BME280;46289;51.992;4.498;2023-04-28T09:19:53;101150.31;;;12.50;90.31
60437;BME280;46289;51.992;4.498;2023-04-28T09:21:58;101152.09;;;12.50;90.60
60437;BME280;46289;51.992;4.498;2023-04-28T09:24:28;101155.66;;;12.49;90.67
60437;BME280;46289;51.992;4.498;2023-04-28T09:26:50;101151.19;;;12.51;90.85
60437;BME280;46289;51.992;4.498;2023-04-28T09:29:15;101147.09;;;12.64;90.88
60437;BME280;46289;51.992;4.498;2023-04-28T09:31:23;101150.50;;;12.66;90.98
60437;BME280;46289;51.992;4.498;2023-04-28T09:33:30;101153.59;;;12.76;91.04
60437;BME280;46289;51.992;4.498;2023-04-28T09:35:39;101151.03;;;12.74;90.92
60437;BME280;46289;51.992;4.498;2023-04-28T09:37:44;101152.75;;;12.94;90.75
60437;BME280;46289;51.992;4.498;2023-04-28T09:39:52;101154.09;;;12.84;89.98
60437;BME280;46289;51.992;4.498;2023-04-28T09:41:57;101148.63;;;12.89;90.88
60437;BME280;46289;51.992;4.498;2023-04-28T09:44:16;101152.47;;;12.82;90.47
60437;BME280;46289;51.992;4.498;2023-04-28T09:46:27;101153.34;;;12.82;91.15
60437;BME280;46289;51.992;4.498;2023-04-28T09:48:34;101154.88;;;12.67;91.90
60437;BME280;46289;51.992;4.498;2023-04-28T09:50:40;101163.66;;;12.87;91.50
60437;BME280;46289;51.992;4.498;2023-04-28T09:52:55;101159.47;;;12.83;92.34
60437;BME280;46289;51.992;4.498;2023-04-28T09:55:01;101160.31;;;12.83;91.73
60437;BME280;46289;51.992;4.498;2023-04-28T09:57:08;101166.38;;;12.85;92.00
60437;BME280;46289;51.992;4.498;2023-04-28T09:59:16;101169.28;;;12.79;91.74
60437;BME280;46289;51.992;4.498;2023-04-28T10:01:20;101167.78;;;12.73;92.76
60437;BME280;46289;51.992;4.498;2023-04-28T10:03:27;101168.69;;;12.93;93.04
60437;BME280;46289;51.992;4.498;2023-04-28T10:05:34;101170.25;;;12.97;93.02
60437;BME280;46289;51.992;4.498;2023-04-28T10:07:40;101164.44;;;12.89;93.43
60437;BME280;46289;51.992;4.498;2023-04-28T10:09:46;101172.56;;;12.84;93.75
60437;BME280;46289;51.992;4.498;2023-04-28T10:11:54;101169.28;;;12.79;94.29
60437;BME280;46289;51.992;4.498;2023-04-28T10:14:00;101171.97;;;12.98;93.76
60437;BME280;46289;51.992;4.498;2023-04-28T10:16:09;101171.56;;;12.87;93.21
60437;BME280;46289;51.992;4.498;2023-04-28T10:18:15;101171.81;;;12.82;93.71
60437;BME280;46289;51.992;4.498;2023-04-28T10:20:23;101171.22;;;12.94;93.37
60437;BME280;46289;51.992;4.498;2023-04-28T10:22:45;101173.16;;;12.91;93.55
60437;BME280;46289;51.992;4.498;2023-04-28T10:25:36;101167.44;;;12.81;93.39
60437;BME280;46289;51.992;4.498;2023-04-28T10:27:44;101175.53;;;12.77;93.38
60437;BME280;46289;51.992;4.498;2023-04-28T10:29:50;101179.13;;;12.76;93.12
60437;BME280;46289;51.992;4.498;2023-04-28T10:32:16;101179.16;;;12.74;93.94
60437;BME280;46289;51.992;4.498;2023-04-28T10:34:26;101176.88;;;12.66;93.79
60437;BME280;46289;51.992;4.498;2023-04-28T10:36:59;101182.53;;;12.78;93.79
60437;BME280;46289;51.992;4.498;2023-04-28T10:42:51;101176.53;;;12.74;94.13
60437;BME280;46289;51.992;4.498;2023-04-28T10:44:57;101184.69;;;12.88;93.61
60437;BME280;46289;51.992;4.498;2023-04-28T10:47:03;101180.94;;;12.73;94.05
60437;BME280;46289;51.992;4.498;2023-04-28T10:49:13;101185.69;;;12.86;93.94
60437;BME280;46289;51.992;4.498;2023-04-28T10:51:22;101186.25;;;12.92;93.96
60437;BME280;46289;51.992;4.498;2023-04-28T10:56:04;101189.69;;;12.94;92.97
60437;BME280;46289;51.992;4.498;2023-04-28T10:58:31;101194.97;;;12.94;93.09
60437;BME280;46289;51.992;4.498;2023-04-28T11:00:39;101192.84;;;13.03;92.62
60437;BME280;46289;51.992;4.498;2023-04-28T11:02:46;101186.41;;;12.89;92.56
60437;BME280;46289;51.992;4.498;2023-04-28T11:05:11;101180.06;;;12.74;93.26
60437;BME280;46289;51.992;4.498;2023-04-28T11:07:17;101182.94;;;12.68;93.00
60437;BME280;46289;51.992;4.498;2023-04-28T11:09:52;101184.53;;;12.72;93.04
60437;BME280;46289;51.992;4.498;2023-04-28T11:12:04;101189.47;;;12.80;93.06
60437;BME280;46289;51.992;4.498;2023-04-28T11:14:30;101185.97;;;12.80;93.44
60437;BME280;46289;51.992;4.498;2023-04-28T11:16:36;101183.34;;;12.80;93.29
60437;BME280;46289;51.992;4.498;2023-04-28T11:18:57;101185.03;;;12.81;93.24
60437;BME280;46289;51.992;4.498;2023-04-28T11:21:08;101182.13;;;12.66;93.22
60437;BME280;46289;51.992;4.498;2023-04-28T11:23:13;101183.50;;;12.95;93.33